Current Conditions
Clear
Conditions




Pressure
1020.32 (mb) - 30.13 (inHG)
Visibility

6.2 (mimiles) - 10.0 (km)
   Temperature
20  °C
68°F
14  °C
Dewpoint
69  %
 Humidity
   Wind Speed
13  mph
11  kts
21  km/h
5.8  m/s
   Wind Direction
 10°
Due North
   Airport Data
EGUL
Location RAF Lakenheath 4 mi (6.44 km)
Metar :EGUL 081856Z AUTO 01011KT 9999 CLR 20/14 A3013 RMK AO2 SLP206 T02020143 $
Sat 8th August 19:56 pm
   Raw Metar Info
Raw METAR is the most common format in the world for the transmission of observational weather data. It is highly standardized through the International Civil Aviation Organization (ICAO), which allows it to be understood throughout most of the world.
   API Info
Data Provided by
https://www.checkwx.com/weather/EGUL
   © Info
CSS/SVG/PHP scripts were developed by weather34.com for use in the weather34 template © 2015-2020

Guide Info provided by Metar-Wikipedia